Spar Lyra — LAZP5 — position and weather

sailwx.info

Track history (hours):
 
Tides and Currents Weather Stations Pressure Air Temp Water Temp Dewpoint Dewpoint Depression Visibility Wind Speed Wind Dir Waves Ship Positions

Spar Lyra

Last reported at 2018-Jan-20 08:29 UTC. Time now 2018-Jan-20 08:44 UTC.
Position N 39°23' W 009°51'.

Length 190 m; draft 7.3 m.

Type: Cargo ship. MMSI: 257316000.

Date/timePositionNaut miles runAvg speedWind from/ knotsBaromVisibWave heightAir tempDewpointWater temp
2018-Jan-20 08:29N 39°23' W 009°51'510.3
2018-Jan-20 08:00N 39°18' W 009°51'610.6
2018-Jan-20 07:29N 39°13' W 009°51'510.6
2018-Jan-20 07:00N 39°08' W 009°51'510.3
2018-Jan-20 06:29N 39°02' W 009°51'510.5
2018-Jan-20 06:00N 38°57' W 009°51'510.4
2018-Jan-20 05:30N 38°52' W 009°51'510.2
2018-Jan-20 05:00N 38°47' W 009°51'5 9.3
2018-Jan-20 04:30N 38°42' W 009°51'5 9.7
2018-Jan-20 04:00N 38°38' W 009°49'510.3
2018-Jan-20 03:30N 38°33' W 009°48'5 9.9
2018-Jan-20 03:00N 38°28' W 009°47'510.1
2018-Jan-20 02:30N 38°23' W 009°46'5 9.1
2018-Jan-20 02:00N 38°18' W 009°44'5 9.3
2018-Jan-20 01:30N 38°14' W 009°43'5 9.8
2018-Jan-20 01:00N 38°09' W 009°41'510.2
2018-Jan-20 00:29N 38°04' W 009°40'5 9.9
2018-Jan-20 00:00N 37°59' W 009°39'5 9.5
2018-Jan-19 23:28N 37°54' W 009°37'4 9.5
2018-Jan-19 23:00N 37°50' W 009°36'5 9.4
2018-Jan-19 22:28N 37°45' W 009°35'5 9.9
2018-Jan-19 22:00N 37°41' W 009°33'5 9.7
2018-Jan-19 21:30N 37°36' W 009°32'6 9.9
2018-Jan-19 20:54N 37°30' W 009°30'4 9.5
2018-Jan-19 20:30N 37°26' W 009°29'8 9.6
2018-Jan-19 19:42N 37°19' W 009°27'2 9.6
2018-Jan-19 19:30N 37°17' W 009°27'5 9.2
2018-Jan-19 19:00N 37°12' W 009°25'5 9.3
2018-Jan-19 18:30N 37°08' W 009°24'19411.5
2018-Jan-19 01:34N 35°58' W 005°38'213.8
2018-Jan-19 01:27N 35°58' W 005°36'613.4
2018-Jan-19 01:00N 35°60' W 005°29'511.2
2018-Jan-19 00:30N 36°03' W 005°23'5 9.3
2018-Jan-19 00:00N 36°07' W 005°22'1 1.6
2018-Jan-18 23:28N 36°08' W 005°22'0 0.1
2018-Jan-18 22:58N 36°08' W 005°22'0 0.0
2018-Jan-18 22:28N 36°08' W 005°22'0 0.1
2018-Jan-18 21:58N 36°08' W 005°22'0 0.1
2018-Jan-18 21:28N 36°08' W 005°22'0 0.2
2018-Jan-18 20:55N 36°08' W 005°22'0 0.1
2018-Jan-18 20:28N 36°08' W 005°22'0 0.1
2018-Jan-18 19:58N 36°08' W 005°22'0 0.1
2018-Jan-18 19:28N 36°08' W 005°22'0 0.0
2018-Jan-18 18:55N 36°08' W 005°22'0 0.1
2018-Jan-18 18:28N 36°08' W 005°22'0 0.3
2018-Jan-18 17:58N 36°08' W 005°22'0 0.0
2018-Jan-18 17:28N 36°08' W 005°22'0 0.1
2018-Jan-18 16:58N 36°08' W 005°22'0 0.1
2018-Jan-18 16:28N 36°08' W 005°22'0 0.0
2018-Jan-18 15:58N 36°08' W 005°22'0 0.0
2018-Jan-18 15:25N 36°08' W 005°22'0 0.2
2018-Jan-18 14:58N 36°08' W 005°22'0 0.0
2018-Jan-18 14:28N 36°08' W 005°22'0 0.0
2018-Jan-18 13:55N 36°08' W 005°22'0 0.2
2018-Jan-18 13:28N 36°08' W 005°22'0 0.1
2018-Jan-18 12:58N 36°08' W 005°22'0 0.1
2018-Jan-18 12:28N 36°08' W 005°22'0 0.0
2018-Jan-18 11:58N 36°08' W 005°22'0 0.0
2018-Jan-18 11:28N 36°08' W 005°22'0 0.0
2018-Jan-18 10:58N 36°08' W 005°22'0 0.1
2018-Jan-18 10:22N 36°08' W 005°22'0 0.0
2018-Jan-18 09:58N 36°08' W 005°22'0 0.1
2018-Jan-18 09:28N 36°08' W 005°22'0 0.1
2018-Jan-18 08:52N 36°08' W 005°22'0 0.2
2018-Jan-18 08:28N 36°08' W 005°22'0 0.1
2018-Jan-18 07:49N 36°08' W 005°22'0 0.2
2018-Jan-18 07:30N 36°08' W 005°22'1 2.3
2018-Jan-18 07:00N 36°07' W 005°22'3 5.0
2018-Jan-18 06:30N 36°05' W 005°21'3 6.7
2018-Jan-18 06:00N 36°04' W 005°17'1 1.9
2018-Jan-18 05:29N 36°04' W 005°16'1 2.2
2018-Jan-18 04:59N 36°05' W 005°16'1 2.2
2018-Jan-18 04:29N 36°06' W 005°16'1 2.1
2018-Jan-18 03:59N 36°07' W 005°15'0 0.8
2018-Jan-18 03:30N 36°07' W 005°16'4 8.8
2018-Jan-18 03:00N 36°04' W 005°11'611.6
2018-Jan-18 02:30N 36°04' W 005°04'612.0
2018-Jan-18 02:00N 36°05' W 004°56'713.2
2018-Jan-18 01:30N 36°05' W 004°48'  
Track history (hours):
 
Tides and Currents Weather Stations Pressure Air Temp Water Temp Dewpoint Dewpoint Depression Visibility Wind Speed Wind Dir Waves Ship Positions

Spar Lyra

Last reported at 2018-Jan-20 08:29 UTC. Time now 2018-Jan-20 08:44 UTC.
Position N 39°23' W 009°51'.

Length 190 m; draft 7.3 m.

Type: Cargo ship. MMSI: 257316000.

Date/timePositionNaut miles runAvg speedWind from/ knotsBaromVisibWave heightAir tempDewpointWater temp
2018-Jan-20 08:29N 39°23' W 009°51'510.3
2018-Jan-20 08:00N 39°18' W 009°51'610.6
2018-Jan-20 07:29N 39°13' W 009°51'510.6
2018-Jan-20 07:00N 39°08' W 009°51'510.3
2018-Jan-20 06:29N 39°02' W 009°51'510.5
2018-Jan-20 06:00N 38°57' W 009°51'510.4
2018-Jan-20 05:30N 38°52' W 009°51'510.2
2018-Jan-20 05:00N 38°47' W 009°51'5 9.3
2018-Jan-20 04:30N 38°42' W 009°51'5 9.7
2018-Jan-20 04:00N 38°38' W 009°49'510.3
2018-Jan-20 03:30N 38°33' W 009°48'5 9.9
2018-Jan-20 03:00N 38°28' W 009°47'510.1
2018-Jan-20 02:30N 38°23' W 009°46'5 9.1
2018-Jan-20 02:00N 38°18' W 009°44'5 9.3
2018-Jan-20 01:30N 38°14' W 009°43'5 9.8
2018-Jan-20 01:00N 38°09' W 009°41'510.2
2018-Jan-20 00:29N 38°04' W 009°40'5 9.9
2018-Jan-20 00:00N 37°59' W 009°39'5 9.5
2018-Jan-19 23:28N 37°54' W 009°37'4 9.5
2018-Jan-19 23:00N 37°50' W 009°36'5 9.4
2018-Jan-19 22:28N 37°45' W 009°35'5 9.9
2018-Jan-19 22:00N 37°41' W 009°33'5 9.7
2018-Jan-19 21:30N 37°36' W 009°32'6 9.9
2018-Jan-19 20:54N 37°30' W 009°30'4 9.5
2018-Jan-19 20:30N 37°26' W 009°29'8 9.6
2018-Jan-19 19:42N 37°19' W 009°27'2 9.6
2018-Jan-19 19:30N 37°17' W 009°27'5 9.2
2018-Jan-19 19:00N 37°12' W 009°25'5 9.3
2018-Jan-19 18:30N 37°08' W 009°24'19411.5
2018-Jan-19 01:34N 35°58' W 005°38'213.8
2018-Jan-19 01:27N 35°58' W 005°36'613.4
2018-Jan-19 01:00N 35°60' W 005°29'511.2
2018-Jan-19 00:30N 36°03' W 005°23'5 9.3
2018-Jan-19 00:00N 36°07' W 005°22'1 1.6
2018-Jan-18 23:28N 36°08' W 005°22'0 0.1
2018-Jan-18 22:58N 36°08' W 005°22'0 0.0
2018-Jan-18 22:28N 36°08' W 005°22'0 0.1
2018-Jan-18 21:58N 36°08' W 005°22'0 0.1
2018-Jan-18 21:28N 36°08' W 005°22'0 0.2
2018-Jan-18 20:55N 36°08' W 005°22'0 0.1
2018-Jan-18 20:28N 36°08' W 005°22'0 0.1
2018-Jan-18 19:58N 36°08' W 005°22'0 0.1
2018-Jan-18 19:28N 36°08' W 005°22'0 0.0
2018-Jan-18 18:55N 36°08' W 005°22'0 0.1
2018-Jan-18 18:28N 36°08' W 005°22'0 0.3
2018-Jan-18 17:58N 36°08' W 005°22'0 0.0
2018-Jan-18 17:28N 36°08' W 005°22'0 0.1
2018-Jan-18 16:58N 36°08' W 005°22'0 0.1
2018-Jan-18 16:28N 36°08' W 005°22'0 0.0
2018-Jan-18 15:58N 36°08' W 005°22'0 0.0
2018-Jan-18 15:25N 36°08' W 005°22'0 0.2
2018-Jan-18 14:58N 36°08' W 005°22'0 0.0
2018-Jan-18 14:28N 36°08' W 005°22'0 0.0
2018-Jan-18 13:55N 36°08' W 005°22'0 0.2
2018-Jan-18 13:28N 36°08' W 005°22'0 0.1
2018-Jan-18 12:58N 36°08' W 005°22'0 0.1
2018-Jan-18 12:28N 36°08' W 005°22'0 0.0
2018-Jan-18 11:58N 36°08' W 005°22'0 0.0
2018-Jan-18 11:28N 36°08' W 005°22'0 0.0
2018-Jan-18 10:58N 36°08' W 005°22'0 0.1
2018-Jan-18 10:22N 36°08' W 005°22'0 0.0
2018-Jan-18 09:58N 36°08' W 005°22'0 0.1
2018-Jan-18 09:28N 36°08' W 005°22'0 0.1
2018-Jan-18 08:52N 36°08' W 005°22'0 0.2
2018-Jan-18 08:28N 36°08' W 005°22'0 0.1
2018-Jan-18 07:49N 36°08' W 005°22'0 0.2
2018-Jan-18 07:30N 36°08' W 005°22'1 2.3
2018-Jan-18 07:00N 36°07' W 005°22'3 5.0
2018-Jan-18 06:30N 36°05' W 005°21'3 6.7
2018-Jan-18 06:00N 36°04' W 005°17'1 1.9
2018-Jan-18 05:29N 36°04' W 005°16'1 2.2
2018-Jan-18 04:59N 36°05' W 005°16'1 2.2
2018-Jan-18 04:29N 36°06' W 005°16'1 2.1
2018-Jan-18 03:59N 36°07' W 005°15'0 0.8
2018-Jan-18 03:30N 36°07' W 005°16'4 8.8
2018-Jan-18 03:00N 36°04' W 005°11'611.6
2018-Jan-18 02:30N 36°04' W 005°04'612.0
2018-Jan-18 02:00N 36°05' W 004°56'713.2
2018-Jan-18 01:30N 36°05' W 004°48'  

Dump ship's entire track history